Time;durP1;ratioP1;P1;durP2;ratioP2;P2;SDS_P1;SDS_P2;PMS_P1;PMS_P2;Temp;Humidity;BMP_temperature;BMP_pressure;BME280_temperature;BME280_humidity;BME280_pressure;Samples;Min_cycle;Max_cycle;Signal;HPM_P1;HPM_P2
2022/07/15 00:02:14;;;;;;;10.07;2.33;;;12.00;1.00;;;;;;5054729;28;20059;-27
2022/07/15 00:04:40;;;;;;;15.48;3.30;;;12.00;1.00;;;;;;5055267;28;20116;-27
2022/07/15 00:07:06;;;;;;;12.23;2.17;;;12.00;1.00;;;;;;5053444;28;20045;-27
2022/07/15 00:12:16;;;;;;;11.52;2.33;;;12.10;1.00;;;;;;5054843;28;20048;-26
2022/07/15 00:14:42;;;;;;;18.80;3.17;;;12.10;1.00;;;;;;5053310;28;20044;-26
2022/07/15 00:17:08;;;;;;;13.13;1.52;;;12.20;1.00;;;;;;5054420;28;20055;-27
2022/07/15 00:19:34;;;;;;;13.18;2.03;;;12.30;1.00;;;;;;5053678;28;20092;-26
2022/07/15 00:22:01;;;;;;;8.52;2.50;;;12.30;1.00;;;;;;5054298;28;20368;-27
2022/07/15 00:24:28;;;;;;;11.27;2.40;;;12.40;1.00;;;;;;5054907;28;20041;-26
2022/07/15 00:26:54;;;;;;;9.43;2.10;;;12.50;1.00;;;;;;5054809;28;20081;-26
2022/07/15 00:29:20;;;;;;;16.27;2.88;;;12.60;12.30;;;;;;5054554;28;20049;-28
2022/07/15 00:31:46;;;;;;;14.02;2.45;;;12.70;5.00;;;;;;5054143;28;20475;-26
2022/07/15 00:34:12;;;;;;;13.45;1.85;;;12.70;1.00;;;;;;5054289;28;20080;-26
2022/07/15 00:36:37;;;;;;;7.35;1.60;;;12.60;15.90;;;;;;5052582;28;20041;-26
2022/07/15 00:39:03;;;;;;;9.32;1.70;;;12.70;11.40;;;;;;5053748;28;20044;-26
2022/07/15 00:41:39;;;;;;;11.63;1.95;;;12.60;1.00;;;;;;5053972;28;20102;-27
2022/07/15 00:44:05;;;;;;;11.82;1.80;;;12.60;3.30;;;;;;5054036;28;20045;-26
2022/07/15 00:46:31;;;;;;;13.48;2.22;;;12.50;1.00;;;;;;5057859;28;20045;-27
2022/07/15 00:48:59;;;;;;;10.52;1.73;;;12.50;1.00;;;;;;5051878;28;20075;-27
2022/07/15 00:51:25;;;;;;;10.80;1.92;;;12.50;1.00;;;;;;5054446;28;20056;-27
2022/07/15 00:53:54;;;;;;;12.05;1.73;;;12.40;1.00;;;;;;5054285;28;20045;-27
2022/07/15 00:56:23;;;;;;;10.80;1.30;;;12.40;1.00;;;;;;5053638;28;20045;-27
2022/07/15 00:58:51;;;;;;;10.25;1.38;;;12.30;1.00;;;;;;5053728;28;20052;-26
2022/07/15 01:01:19;;;;;;;15.90;1.88;;;12.30;1.00;;;;;;5053707;28;20053;-26
2022/07/15 01:03:47;;;;;;;9.05;1.58;;;12.20;1.00;;;;;;5054118;28;20052;-26
2022/07/15 01:06:13;;;;;;;11.07;1.58;;;12.20;1.00;;;;;;5052491;28;20053;-27
2022/07/15 01:08:39;;;;;;;13.45;1.73;;;12.10;1.00;;;;;;5052571;28;20044;-26
2022/07/15 01:11:05;;;;;;;12.88;1.88;;;12.00;1.00;;;;;;5053261;28;20103;-27
2022/07/15 01:13:31;;;;;;;18.70;1.90;;;12.00;1.00;;;;;;5053565;28;20045;-26
2022/07/15 01:15:57;;;;;;;12.98;2.55;;;12.00;1.00;;;;;;5053484;28;20056;-26
2022/07/15 01:18:23;;;;;;;10.55;1.70;;;12.10;41.60;;;;;;5053395;28;20044;-28
2022/07/15 01:20:49;;;;;;;10.00;1.40;;;12.10;19.90;;;;;;5052917;28;20506;-26
2022/07/15 01:23:15;;;;;;;9.05;1.20;;;12.10;24.40;;;;;;5057689;28;20502;-26
2022/07/15 01:25:41;;;;;;;8.65;1.58;;;12.10;58.70;;;;;;5040039;28;20060;-26
2022/07/15 01:28:08;;;;;;;12.75;1.55;;;12.00;1.00;;;;;;5056252;28;20041;-26
2022/07/15 01:30:34;;;;;;;11.50;2.42;;;11.90;1.00;;;;;;5058125;28;20150;-26
2022/07/15 01:33:00;;;;;;;9.15;0.95;;;11.90;1.00;;;;;;5057512;28;20053;-26
2022/07/15 01:35:28;;;;;;;4.63;0.75;;;11.70;1.00;;;;;;5040621;28;20056;-26
2022/07/15 01:37:54;;;;;;;7.15;0.90;;;11.70;99.90;;;;;;5055962;28;20044;-27
2022/07/15 01:40:20;;;;;;;8.85;0.82;;;11.70;99.90;;;;;;5056817;28;20045;-26
2022/07/15 01:42:45;;;;;;;4.45;0.90;;;11.50;99.90;;;;;;5057353;28;20045;-26
2022/07/15 01:45:12;;;;;;;8.88;0.90;;;11.30;99.90;;;;;;5057297;28;20041;-26
2022/07/15 01:47:46;;;;;;;11.25;0.93;;;11.10;99.90;;;;;;5056987;28;20574;-26
2022/07/15 01:50:12;;;;;;;13.52;2.03;;;11.00;99.90;;;;;;5057518;28;20060;-26
2022/07/15 01:52:38;;;;;;;8.70;0.93;;;10.80;99.90;;;;;;5057198;28;20379;-26
2022/07/15 01:55:05;;;;;;;8.75;1.08;;;10.70;99.90;;;;;;5055988;28;20052;-26
2022/07/15 01:57:31;;;;;;;8.27;1.10;;;10.50;99.90;;;;;;5058597;28;20041;-26
2022/07/15 01:59:57;;;;;;;6.50;0.98;;;10.30;99.90;;;;;;5055949;28;20045;-26
2022/07/15 02:02:23;;;;;;;7.68;1.25;;;10.30;99.90;;;;;;5056961;28;20051;-26
2022/07/15 02:04:48;;;;;;;4.53;1.73;;;10.20;99.90;;;;;;5056954;28;20084;-26
2022/07/15 02:07:14;;;;;;;9.85;1.30;;;10.10;99.90;;;;;;5057221;28;20052;-26
2022/07/15 02:09:40;;;;;;;10.75;1.30;;;10.00;99.90;;;;;;5055958;28;20098;-26
2022/07/15 02:12:06;;;;;;;6.28;1.25;;;9.90;99.90;;;;;;5055135;28;20049;-26
2022/07/15 02:14:33;;;;;;;11.80;2.05;;;9.90;99.90;;;;;;5056742;28;20084;-26
2022/07/15 02:17:00;;;;;;;9.23;1.38;;;9.80;99.90;;;;;;5056714;28;20045;-26
2022/07/15 02:19:26;;;;;;;8.75;1.85;;;9.80;99.90;;;;;;5058028;28;20427;-26
2022/07/15 02:21:52;;;;;;;10.25;1.70;;;9.80;99.90;;;;;;5056545;28;20045;-26
2022/07/15 02:24:19;;;;;;;8.13;1.95;;;9.80;99.90;;;;;;5056614;28;20060;-26
2022/07/15 02:26:45;;;;;;;8.75;1.70;;;9.70;1.00;;;;;;5057098;28;20372;-26
2022/07/15 02:29:11;;;;;;;12.70;1.83;;;9.70;1.00;;;;;;5056485;28;20586;-26
2022/07/15 02:31:37;;;;;;;8.95;1.73;;;9.80;1.00;;;;;;5057096;28;20127;-27
2022/07/15 02:34:03;;;;;;;9.10;1.83;;;9.80;1.00;;;;;;5055764;28;20068;-26
2022/07/15 02:36:29;;;;;;;9.15;1.60;;;9.80;1.00;;;;;;5056343;28;20044;-26
2022/07/15 02:38:55;;;;;;;5.03;1.20;;;9.80;1.00;;;;;;5056310;28;20082;-28
2022/07/15 02:41:21;;;;;;;8.20;1.63;;;9.80;1.00;;;;;;5055268;28;20052;-27
2022/07/15 02:43:48;;;;;;;7.50;1.35;;;9.80;1.00;;;;;;5073769;28;20123;-26
2022/07/15 02:46:14;;;;;;;8.77;1.38;;;9.80;1.00;;;;;;5076732;28;20047;-27
2022/07/15 02:48:40;;;;;;;7.38;1.33;;;9.70;1.00;;;;;;5074985;28;20062;-26
2022/07/15 02:51:06;;;;;;;11.30;1.65;;;9.70;1.00;;;;;;5071137;28;20411;-27
2022/07/15 02:53:32;;;;;;;5.60;1.30;;;9.60;1.00;;;;;;5056024;28;20059;-27
2022/07/15 02:55:58;;;;;;;6.00;1.00;;;9.50;1.00;;;;;;5055941;28;20045;-26
2022/07/15 02:58:25;;;;;;;8.00;1.13;;;9.40;1.00;;;;;;5056772;28;20056;-26
2022/07/15 03:00:50;;;;;;;4.45;0.82;;;9.50;1.00;;;;;;5055209;28;20053;-26
2022/07/15 03:03:17;;;;;;;4.40;0.60;;;9.70;1.00;;;;;;5054473;28;20048;-26
2022/07/15 03:05:42;;;;;;;2.90;0.77;;;10.00;1.00;;;;;;5055791;28;20178;-26
2022/07/15 03:08:08;;;;;;;5.22;1.00;;;10.20;1.00;;;;;;5055717;28;20084;-27
2022/07/15 03:10:34;;;;;;;7.82;1.00;;;10.30;1.00;;;;;;5055712;28;20044;-26
2022/07/15 03:12:59;;;;;;;4.03;0.77;;;10.40;99.90;;;;;;5055236;28;20479;-27
2022/07/15 03:15:26;;;;;;;4.50;0.73;;;10.40;99.90;;;;;;5054452;28;20049;-26
2022/07/15 03:17:51;;;;;;;1.98;0.68;;;10.20;99.90;;;;;;5055598;28;20055;-26
2022/07/15 03:20:17;;;;;;;6.45;0.98;;;10.20;99.90;;;;;;5055496;28;20411;-26
2022/07/15 03:22:43;;;;;;;4.50;0.80;;;10.20;99.90;;;;;;5054231;28;20044;-26
2022/07/15 03:25:09;;;;;;;7.82;0.80;;;10.10;99.90;;;;;;5055412;28;20040;-26
2022/07/15 03:27:34;;;;;;;4.65;1.02;;;10.10;99.90;;;;;;5055713;28;20049;-26
2022/07/15 03:30:01;;;;;;;2.85;1.00;;;10.10;99.90;;;;;;5055385;28;20119;-27
2022/07/15 03:32:27;;;;;;;5.88;1.00;;;10.10;99.90;;;;;;5055307;28;20106;-26
2022/07/15 03:34:53;;;;;;;5.32;0.93;;;10.00;99.90;;;;;;5055930;28;20045;-27
2022/07/15 03:37:18;;;;;;;2.95;1.30;;;10.00;99.90;;;;;;5055233;28;20060;-26
2022/07/15 03:39:45;;;;;;;5.03;1.50;;;10.00;99.90;;;;;;5055175;28;20052;-27
2022/07/15 03:42:11;;;;;;;4.90;1.23;;;10.00;99.90;;;;;;5055993;28;20076;-26
2022/07/15 03:44:37;;;;;;;6.10;0.98;;;10.00;99.90;;;;;;5055854;28;20056;-26
2022/07/15 03:47:02;;;;;;;4.10;1.33;;;10.10;99.90;;;;;;5055041;28;20128;-26
2022/07/15 03:49:28;;;;;;;7.80;0.85;;;10.10;99.90;;;;;;5054964;28;20079;-26
2022/07/15 03:51:54;;;;;;;2.25;0.88;;;10.20;99.90;;;;;;5054953;28;20056;-26
2022/07/15 03:54:19;;;;;;;2.05;0.47;;;10.30;1.00;;;;;;5056321;28;20045;-26
2022/07/15 03:56:47;;;;;;;6.57;0.98;;;10.40;1.00;;;;;;5054847;28;20411;-26
2022/07/15 03:59:14;;;;;;;4.38;0.73;;;10.50;1.00;;;;;;5055049;28;20056;-26
2022/07/15 04:01:40;;;;;;;3.97;0.90;;;10.60;1.00;;;;;;5054730;28;20395;-26
2022/07/15 04:04:06;;;;;;;6.38;0.98;;;10.70;1.00;;;;;;5053709;28;20505;-26
2022/07/15 04:06:32;;;;;;;5.53;0.77;;;10.90;1.00;;;;;;5037064;28;20041;-27
2022/07/15 04:08:58;;;;;;;7.53;1.27;;;11.00;1.00;;;;;;5053659;28;20057;-26
2022/07/15 04:11:24;;;;;;;5.45;0.65;;;11.10;1.00;;;;;;5054559;28;20051;-26
2022/07/15 04:13:50;;;;;;;3.10;0.50;;;11.20;1.00;;;;;;5054551;28;20106;-26
2022/07/15 04:16:16;;;;;;;6.55;0.80;;;11.30;1.00;;;;;;5054489;28;20041;-28
2022/07/15 04:18:42;;;;;;;6.25;0.80;;;11.40;1.00;;;;;;5054811;28;20048;-26
2022/07/15 04:21:08;;;;;;;8.05;0.90;;;11.60;1.00;;;;;;5053207;28;20064;-27
2022/07/15 04:23:33;;;;;;;4.43;0.70;;;11.70;1.00;;;;;;5054962;28;20052;-26
2022/07/15 04:25:59;;;;;;;3.65;0.50;;;11.90;1.00;;;;;;5055162;28;20402;-27
2022/07/15 04:28:26;;;;;;;4.13;0.63;;;12.00;1.00;;;;;;5052995;28;20513;-26
2022/07/15 04:30:51;;;;;;;3.63;1.00;;;12.20;99.90;;;;;;5054175;28;20487;-27
2022/07/15 04:33:17;;;;;;;1.98;0.40;;;12.40;99.90;;;;;;5054130;28;20053;-26
2022/07/15 04:35:44;;;;;;;3.45;0.40;;;12.40;99.90;;;;;;5054818;28;20041;-27
2022/07/15 04:38:10;;;;;;;4.63;0.40;;;12.50;99.90;;;;;;5053718;28;20091;-27
2022/07/15 04:40:39;;;;;;;2.50;0.65;;;12.60;99.90;;;;;;5054028;28;20060;-27
2022/07/15 04:43:05;;;;;;;3.67;0.73;;;12.60;99.90;;;;;;5054012;28;20049;-26
2022/07/15 04:45:31;;;;;;;3.95;0.45;;;12.60;99.90;;;;;;5053021;28;20052;-27
2022/07/15 04:47:57;;;;;;;4.13;0.80;;;12.50;99.90;;;;;;5053909;28;20045;-27
2022/07/15 04:53:07;;;;;;;5.15;0.50;;;12.30;99.90;;;;;;5054801;28;20119;-27
2022/07/15 04:55:33;;;;;;;3.95;0.85;;;12.20;99.90;;;;;;5053314;28;20037;-27
2022/07/15 04:57:59;;;;;;;2.60;0.68;;;12.10;99.90;;;;;;5053699;28;20135;-26
2022/07/15 05:00:25;;;;;;;6.85;0.88;;;12.00;99.90;;;;;;5053757;28;20127;-27
2022/07/15 05:02:50;;;;;;;6.60;0.50;;;11.90;99.90;;;;;;5052218;28;20041;-26
2022/07/15 05:05:16;;;;;;;6.38;0.68;;;11.90;99.90;;;;;;5053240;28;20048;-27
2022/07/15 05:07:42;;;;;;;3.53;0.77;;;11.80;99.90;;;;;;5053647;28;20086;-26
2022/07/15 05:10:09;;;;;;;3.90;0.80;;;11.90;1.00;;;;;;5036355;28;20048;-27
2022/07/15 05:12:36;;;;;;;3.20;0.43;;;12.10;1.00;;;;;;5053593;28;20537;-26
2022/07/15 05:15:02;;;;;;;10.00;0.70;;;12.20;99.90;;;;;;5053454;28;20451;-27
2022/07/15 05:17:28;;;;;;;4.65;0.82;;;12.50;99.90;;;;;;5052600;28;20049;-27
2022/07/15 05:19:54;;;;;;;4.13;0.60;;;12.80;99.90;;;;;;5053541;28;20103;-27
2022/07/15 05:22:20;;;;;;;7.13;0.45;;;13.20;99.90;;;;;;5053420;28;20127;-27
2022/07/15 05:24:46;;;;;;;8.32;1.25;;;13.40;87.10;;;;;;5053031;28;20120;-27
2022/07/15 05:27:12;;;;;;;12.43;0.50;;;13.40;99.90;;;;;;5052045;28;20071;-27
2022/07/15 05:29:38;;;;;;;5.85;0.45;;;13.50;93.20;;;;;;5053508;28;20470;-27
2022/07/15 05:32:12;;;;;;;7.40;1.10;;;13.60;99.90;;;;;;5053560;28;20056;-28
2022/07/15 05:34:38;;;;;;;4.38;1.33;;;13.60;1.00;;;;;;5053447;28;20049;-27
2022/07/15 05:37:04;;;;;;;3.47;0.50;;;13.60;1.00;;;;;;5053943;28;20368;-26
2022/07/15 05:39:29;;;;;;;3.60;0.63;;;13.60;1.00;;;;;;5053609;28;20048;-27
2022/07/15 05:41:55;;;;;;;5.18;0.50;;;13.60;1.00;;;;;;5053361;28;20379;-27
2022/07/15 05:44:21;;;;;;;4.78;0.75;;;13.60;18.20;;;;;;5053294;28;20098;-27
2022/07/15 05:46:47;;;;;;;2.35;0.35;;;13.60;23.00;;;;;;5053630;28;20402;-26
2022/07/15 05:49:13;;;;;;;3.78;0.85;;;13.70;48.30;;;;;;5053244;28;20045;-27
2022/07/15 05:51:38;;;;;;;7.03;0.77;;;13.80;58.30;;;;;;5053253;28;20052;-27
2022/07/15 05:54:04;;;;;;;3.53;0.30;;;13.80;19.10;;;;;;5053397;28;20068;-27
2022/07/15 05:56:30;;;;;;;3.25;0.40;;;13.80;11.50;;;;;;5052593;28;20041;-26
2022/07/15 05:58:56;;;;;;;5.25;0.40;;;13.90;20.60;;;;;;5053975;28;20482;-27
2022/07/15 06:01:23;;;;;;;3.33;0.65;;;13.90;18.70;;;;;;5053165;28;20048;-27
2022/07/15 06:03:49;;;;;;;4.10;0.50;;;13.90;10.90;;;;;;5053119;28;20114;-27
2022/07/15 06:06:14;;;;;;;6.72;0.70;;;13.90;1.00;;;;;;5053355;28;20037;-27
2022/07/15 06:08:40;;;;;;;2.40;0.30;;;14.00;1.00;;;;;;5055786;28;20048;-27
2022/07/15 06:11:08;;;;;;;3.83;1.13;;;14.00;1.00;;;;;;5056468;28;20051;-29
2022/07/15 06:13:34;;;;;;;3.78;0.40;;;14.20;1.00;;;;;;5057381;28;20048;-26
2022/07/15 06:15:59;;;;;;;4.45;0.45;;;14.30;1.00;;;;;;5039617;28;20052;-28
2022/07/15 06:18:25;;;;;;;3.92;0.50;;;14.50;1.00;;;;;;5055983;28;20057;-27
2022/07/15 06:20:51;;;;;;;4.75;0.63;;;14.60;99.90;;;;;;5056948;28;20068;-27
2022/07/15 06:23:17;;;;;;;5.03;0.40;;;14.70;99.90;;;;;;5056597;28;20049;-27
2022/07/15 06:25:43;;;;;;;6.97;0.60;;;14.70;99.90;;;;;;5055425;28;20045;-26
2022/07/15 06:28:09;;;;;;;5.15;0.40;;;14.60;99.90;;;;;;5059056;28;20402;-27
2022/07/15 06:30:35;;;;;;;1.95;0.32;;;14.60;99.90;;;;;;5076563;28;20086;-27
2022/07/15 06:33:00;;;;;;;4.03;0.80;;;14.60;99.90;;;;;;5076462;28;20056;-27
2022/07/15 06:35:26;;;;;;;5.30;0.50;;;15.20;99.90;;;;;;5076905;28;20040;-27
2022/07/15 06:37:52;;;;;;;10.35;0.70;;;16.10;71.80;;;;;;5069955;28;20041;-27
2022/07/15 06:40:18;;;;;;;6.40;0.60;;;16.40;1.00;;;;;;5055376;28;20072;-27
2022/07/15 06:42:44;;;;;;;3.40;0.82;;;16.50;99.90;;;;;;5056264;28;20045;-27
2022/07/15 06:45:10;;;;;;;3.22;0.47;;;16.40;99.90;;;;;;5056195;28;20044;-27
2022/07/15 06:47:39;;;;;;;3.70;0.35;;;16.30;1.00;;;;;;5056163;28;20049;-27
2022/07/15 06:50:05;;;;;;;2.55;0.20;;;16.80;99.90;;;;;;5061554;28;20399;-27
2022/07/15 06:52:30;;;;;;;3.55;0.32;;;16.90;99.90;;;;;;5059886;28;20037;-27
2022/07/15 06:54:56;;;;;;;3.88;0.60;;;17.40;99.90;;;;;;5060469;28;20033;-27
2022/07/15 06:57:22;;;;;;;2.88;0.60;;;17.80;99.90;;;;;;5054761;28;20531;-27
2022/07/15 06:59:50;;;;;;;2.08;0.40;;;18.00;57.50;;;;;;5055944;28;20049;-27
2022/07/15 07:02:17;;;;;;;4.20;0.55;;;17.60;1.00;;;;;;5055904;28;20049;-27
2022/07/15 07:04:43;;;;;;;2.30;0.30;;;17.80;42.70;;;;;;5056640;28;20045;-27
2022/07/15 07:07:08;;;;;;;7.22;0.75;;;18.50;18.10;;;;;;5056105;28;20471;-27
2022/07/15 07:09:34;;;;;;;2.10;0.13;;;18.70;1.00;;;;;;5061950;28;20044;-28
2022/07/15 07:12:00;;;;;;;3.55;0.30;;;17.90;1.00;;;;;;5076303;28;20085;-27
2022/07/15 07:14:26;;;;;;;9.07;0.30;;;17.10;1.00;;;;;;5076455;28;20386;-28
2022/07/15 07:16:52;;;;;;;5.13;0.50;;;16.50;19.60;;;;;;5075505;28;20094;-27
2022/07/15 07:19:17;;;;;;;8.05;0.77;;;16.10;99.90;;;;;;5075620;28;20080;-27
2022/07/15 07:21:43;;;;;;;4.07;0.65;;;15.80;99.90;;;;;;5075081;28;20460;-28
2022/07/15 07:24:09;;;;;;;1.42;0.40;;;15.50;99.90;;;;;;5073911;28;20367;-27
2022/07/15 07:26:35;;;;;;;3.83;1.00;;;15.40;1.00;;;;;;5074425;28;20050;-27
2022/07/15 07:29:00;;;;;;;3.58;0.25;;;15.70;1.00;;;;;;5075387;28;20053;-27
2022/07/15 07:31:26;;;;;;;1.98;0.30;;;16.50;1.00;;;;;;5075315;28;20044;-27
2022/07/15 07:33:57;;;;;;;3.10;0.30;;;17.30;99.90;;;;;;5064261;28;20110;-27
2022/07/15 07:36:23;;;;;;;4.43;0.28;;;17.80;99.90;;;;;;5055186;28;20040;-27
2022/07/15 07:38:49;;;;;;;2.88;0.30;;;18.20;1.00;;;;;;5055181;28;20053;-29
2022/07/15 07:41:15;;;;;;;2.72;0.30;;;18.00;99.90;;;;;;5055146;28;20052;-27
2022/07/15 07:43:40;;;;;;;0.90;0.20;;;17.80;1.00;;;;;;5056065;28;20040;-28
2022/07/15 07:46:06;;;;;;;2.97;0.30;;;17.60;99.90;;;;;;5052948;28;20041;-27
2022/07/15 07:48:32;;;;;;;1.27;0.20;;;17.50;99.90;;;;;;5056407;28;20124;-27
2022/07/15 07:50:58;;;;;;;4.18;0.38;;;17.50;1.00;;;;;;5065628;28;20055;-27
2022/07/15 07:53:24;;;;;;;2.78;0.32;;;17.40;99.90;;;;;;5075457;28;20524;-27
2022/07/15 07:55:50;;;;;;;3.22;0.20;;;17.40;99.90;;;;;;5056955;28;20068;-27
2022/07/15 07:58:17;;;;;;;8.23;0.65;;;16.90;1.00;;;;;;5054839;28;20479;-25
2022/07/15 08:00:44;;;;;;;3.15;0.47;;;16.30;99.90;;;;;;5054789;28;20040;-25
2022/07/15 08:03:10;;;;;;;1.45;0.20;;;15.80;99.90;;;;;;5054680;28;20045;-25
2022/07/15 08:05:36;;;;;;;8.55;0.40;;;15.50;99.90;;;;;;5054348;28;20041;-24
2022/07/15 08:08:08;;;;;;;3.13;0.30;;;15.20;1.00;;;;;;5054137;28;20044;-24
2022/07/15 08:10:34;;;;;;;5.97;0.80;;;15.10;1.00;;;;;;5054655;28;20066;-23
2022/07/15 08:13:01;;;;;;;1.25;0.13;;;15.10;75.70;;;;;;5054553;28;20394;-23
2022/07/15 08:15:26;;;;;;;3.53;0.55;;;15.30;99.90;;;;;;5053866;28;20045;-25
2022/07/15 08:17:52;;;;;;;1.95;0.32;;;15.60;99.90;;;;;;5054343;28;20376;-24
2022/07/15 08:20:18;;;;;;;0.63;0.22;;;16.10;93.60;;;;;;5054159;28;20053;-24
2022/07/15 08:22:44;;;;;;;2.20;0.20;;;16.50;1.00;;;;;;5053074;28;20060;-24
2022/07/15 08:25:09;;;;;;;1.17;0.20;;;16.80;99.90;;;;;;5054289;28;20045;-24
2022/07/15 08:27:35;;;;;;;1.58;0.20;;;17.00;99.90;;;;;;5053405;28;20499;-25
2022/07/15 08:30:01;;;;;;;2.28;0.60;;;17.50;99.90;;;;;;5053412;28;20049;-25
2022/07/15 08:32:27;;;;;;;2.38;0.10;;;18.30;99.90;;;;;;5053838;28;20052;-25
2022/07/15 08:34:52;;;;;;;2.00;0.20;;;18.70;1.00;;;;;;5054041;28;20049;-26
2022/07/15 08:37:18;;;;;;;3.03;0.20;;;18.10;99.90;;;;;;5054084;28;20045;-26
2022/07/15 08:39:44;;;;;;;3.63;0.73;;;17.60;1.00;;;;;;5054562;28;20103;-26
2022/07/15 08:42:10;;;;;;;0.40;0.10;;;17.20;1.00;;;;;;5052065;28;20137;-25
2022/07/15 08:44:36;;;;;;;1.17;0.10;;;17.00;4.90;;;;;;5054439;28;20132;-26
2022/07/15 08:47:04;;;;;;;3.10;0.32;;;17.60;48.20;;;;;;5053872;28;20187;-26
2022/07/15 08:49:32;;;;;;;2.25;0.22;;;18.10;1.00;;;;;;5055613;28;20124;-27
2022/07/15 08:52:00;;;;;;;0.70;0.20;;;17.80;99.90;;;;;;5053819;28;20049;-26
2022/07/15 08:54:26;;;;;;;1.20;0.13;;;17.40;99.90;;;;;;5054271;28;20096;-27
2022/07/15 08:56:52;;;;;;;1.50;0.17;;;17.20;99.90;;;;;;5052787;28;20479;-27
2022/07/15 08:59:18;;;;;;;2.50;0.20;;;17.10;1.00;;;;;;5053690;28;20041;-27
2022/07/15 09:01:48;;;;;;;1.20;0.32;;;17.00;1.00;;;;;;5053444;28;20076;-27
2022/07/15 09:04:15;;;;;;;1.73;0.43;;;17.00;22.20;;;;;;5053656;28;20078;-27
2022/07/15 09:06:43;;;;;;;1.85;0.63;;;17.20;1.00;;;;;;5053327;28;20578;-27
2022/07/15 09:09:36;;;;;;;3.20;0.25;;;17.50;1.00;;;;;;5054443;28;20070;-27
2022/07/15 09:12:08;;;;;;;2.90;0.20;;;18.20;1.00;;;;;;5052611;28;20457;-27
2022/07/15 09:14:36;;;;;;;3.65;0.28;;;17.90;99.90;;;;;;5053517;28;20044;-26
2022/07/15 09:17:11;;;;;;;2.33;0.13;;;17.40;99.90;;;;;;5053546;28;20055;-27
2022/07/15 09:19:59;;;;;;;3.63;0.35;;;17.20;99.90;;;;;;5053601;28;20048;-27
2022/07/15 09:22:27;;;;;;;2.80;0.30;;;17.30;1.00;;;;;;5054861;28;20045;-27
2022/07/15 09:25:06;;;;;;;2.78;0.20;;;17.70;1.00;;;;;;5052931;28;20044;-28
2022/07/15 09:27:36;;;;;;;1.88;0.45;;;18.70;1.00;;;;;;5054312;28;20391;-27
2022/07/15 09:33:43;;;;;;;1.13;0.40;;;19.80;2.60;;;;;;5056422;28;20102;-28
2022/07/15 09:36:12;;;;;;;2.35;0.20;;;19.90;93.00;;;;;;5052338;28;20033;-28
2022/07/15 09:38:42;;;;;;;1.20;0.13;;;19.90;99.90;;;;;;5053880;28;20053;-27
2022/07/15 09:41:11;;;;;;;1.92;0.43;;;19.50;99.90;;;;;;5053303;28;20127;-28
2022/07/15 09:43:47;;;;;;;1.23;0.20;;;19.30;1.00;;;;;;5056912;28;20052;-28
2022/07/15 09:46:13;;;;;;;1.80;0.20;;;19.10;1.00;;;;;;5056761;28;20128;-27
2022/07/15 09:48:41;;;;;;;1.55;0.10;;;19.20;1.00;;;;;;5057271;28;20045;-28
2022/07/15 09:51:07;;;;;;;1.20;0.20;;;19.40;1.00;;;;;;5057190;28;20098;-27
2022/07/15 09:53:33;;;;;;;2.42;0.25;;;19.30;1.00;;;;;;5057173;28;20049;-27
2022/07/15 09:56:01;;;;;;;2.17;0.30;;;19.30;1.00;;;;;;5057689;28;20048;-27
2022/07/15 09:58:27;;;;;;;1.05;0.30;;;19.30;99.90;;;;;;5057115;28;20049;-27
2022/07/15 10:00:53;;;;;;;3.25;0.20;;;19.50;99.90;;;;;;5055903;28;20045;-27
2022/07/15 10:03:22;;;;;;;2.47;0.30;;;19.60;99.90;;;;;;5057546;28;20052;-27
2022/07/15 10:05:53;;;;;;;7.22;0.52;;;19.60;99.90;;;;;;5057054;28;20045;-27
2022/07/15 10:08:19;;;;;;;3.15;0.40;;;19.60;99.90;;;;;;5057003;28;20126;-28
2022/07/15 10:10:48;;;;;;;2.47;0.10;;;19.30;99.90;;;;;;5057727;28;20121;-27
2022/07/15 10:13:37;;;;;;;3.78;0.20;;;18.90;99.90;;;;;;5038940;28;20040;-28
2022/07/15 10:16:12;;;;;;;1.90;0.40;;;18.80;99.90;;;;;;5056368;28;20119;-30
2022/07/15 10:19:06;;;;;;;1.55;0.38;;;19.00;1.00;;;;;;5056576;28;20045;-27
2022/07/15 10:21:44;;;;;;;0.90;0.20;;;19.80;1.00;;;;;;5056943;28;20166;-27
2022/07/15 10:24:35;;;;;;;3.40;0.90;;;20.40;99.90;;;;;;5055368;28;20051;-28
2022/07/15 10:27:10;;;;;;;2.67;0.50;;;20.40;1.00;;;;;;5056966;28;20049;-27
2022/07/15 10:29:36;;;;;;;1.27;0.20;;;20.10;1.00;;;;;;5056647;28;20053;-27
2022/07/15 10:32:02;;;;;;;1.95;0.20;;;19.80;99.90;;;;;;5055983;28;20049;-28
2022/07/15 10:34:39;;;;;;;2.72;0.32;;;20.00;1.00;;;;;;5055456;28;20040;-27
2022/07/15 10:37:10;;;;;;;2.67;0.45;;;20.10;99.90;;;;;;5056997;28;20041;-27
2022/07/15 10:40:06;;;;;;;0.80;0.30;;;20.10;99.90;;;;;;5059613;28;20069;-28
2022/07/15 10:43:01;;;;;;;2.38;0.38;;;20.10;99.90;;;;;;5058561;28;20124;-27
2022/07/15 10:45:27;;;;;;;1.50;0.38;;;19.50;99.90;;;;;;5057744;28;20494;-27
2022/07/15 10:48:25;;;;;;;0.50;0.10;;;19.10;99.90;;;;;;5055200;28;20056;-29
2022/07/15 10:50:51;;;;;;;2.53;0.10;;;19.00;99.90;;;;;;5056134;28;20514;-28
2022/07/15 10:53:20;;;;;;;2.08;0.20;;;19.00;1.00;;;;;;5055851;28;20045;-27
2022/07/15 10:55:46;;;;;;;2.15;0.60;;;19.00;1.00;;;;;;5056439;28;20461;-28
2022/07/15 10:58:16;;;;;;;2.70;0.32;;;18.90;1.00;;;;;;5056795;28;20044;-27
2022/07/15 11:00:43;;;;;;;2.20;0.10;;;19.20;1.00;;;;;;5055946;28;20041;-27
2022/07/15 11:03:17;;;;;;;2.63;0.30;;;19.20;1.00;;;;;;5055922;28;20131;-28
2022/07/15 11:05:48;;;;;;;4.63;0.50;;;19.30;1.00;;;;;;5056442;28;20114;-28
2022/07/15 11:08:33;;;;;;;4.07;0.10;;;19.30;99.90;;;;;;5055272;28;20053;-27
2022/07/15 11:11:22;;;;;;;1.38;0.20;;;19.20;99.90;;;;;;5055730;28;20091;-27
2022/07/15 11:13:49;;;;;;;1.30;0.30;;;19.20;1.00;;;;;;5026816;28;20079;-28
2022/07/15 11:16:17;;;;;;;1.05;0.17;;;19.00;35.80;;;;;;5057089;28;20112;-27
2022/07/15 11:18:59;;;;;;;3.17;0.28;;;18.80;9.30;;;;;;5054959;28;20037;-27
2022/07/15 11:21:25;;;;;;;1.42;0.20;;;18.70;99.90;;;;;;5055555;28;20517;-28
2022/07/15 11:23:53;;;;;;;3.65;0.45;;;18.60;99.90;;;;;;5055018;28;20072;-28
2022/07/15 11:26:19;;;;;;;1.50;0.17;;;18.50;69.30;;;;;;5055342;28;20047;-27
2022/07/15 11:28:56;;;;;;;1.48;0.28;;;18.50;99.90;;;;;;5055377;28;20052;-27
2022/07/15 11:31:23;;;;;;;1.08;0.28;;;18.70;1.00;;;;;;5058613;28;20047;-27
2022/07/15 11:33:55;;;;;;;4.72;0.55;;;19.30;99.90;;;;;;5055321;28;20049;-28
2022/07/15 11:36:22;;;;;;;0.50;0.10;;;19.70;1.00;;;;;;5054784;28;20594;-28
2022/07/15 11:38:49;;;;;;;4.28;0.20;;;20.30;1.00;;;;;;5064267;28;20051;-27
2022/07/15 11:46:46;;;;;;;1.67;0.40;;;20.30;1.00;;;;;;5055992;28;20388;-27
2022/07/15 11:49:29;;;;;;;6.18;0.93;;;19.90;1.00;;;;;;5053912;28;20143;-27
2022/07/15 11:51:55;;;;;;;4.18;0.50;;;19.40;1.00;;;;;;5054784;28;20351;-27
2022/07/15 11:54:21;;;;;;;2.83;0.52;;;19.00;99.90;;;;;;5058427;28;20128;-27
2022/07/15 11:56:58;;;;;;;2.28;0.40;;;18.50;99.90;;;;;;5054850;28;20118;-27
2022/07/15 11:59:24;;;;;;;2.63;0.65;;;18.10;1.00;;;;;;5054843;28;20048;-27
2022/07/15 12:02:11;;;;;;;2.55;0.77;;;18.00;1.00;;;;;;5057139;28;20055;-27
2022/07/15 12:04:38;;;;;;;1.20;0.30;;;17.80;99.90;;;;;;5053926;28;20045;-27
2022/07/15 12:07:04;;;;;;;5.05;0.50;;;17.80;99.90;;;;;;5054819;28;20099;-28
2022/07/15 12:09:48;;;;;;;2.00;0.40;;;17.90;99.90;;;;;;5054870;28;20395;-27
2022/07/15 12:12:15;;;;;;;4.88;1.13;;;17.90;99.90;;;;;;5055233;28;20123;-27
2022/07/15 12:14:42;;;;;;;1.63;0.40;;;17.90;99.90;;;;;;5055046;28;20098;-27
2022/07/15 12:17:09;;;;;;;4.60;0.68;;;17.90;99.90;;;;;;5053987;28;20044;-27
2022/07/15 12:19:35;;;;;;;4.88;0.73;;;17.90;99.90;;;;;;5054563;28;20061;-28
2022/07/15 12:22:06;;;;;;;1.88;0.43;;;17.80;99.90;;;;;;5057320;28;20128;-27
2022/07/15 12:24:41;;;;;;;2.65;0.95;;;17.80;99.90;;;;;;5067801;28;20102;-28
2022/07/15 12:27:07;;;;;;;3.25;0.65;;;17.70;99.90;;;;;;5072500;28;20100;-27
2022/07/15 12:29:34;;;;;;;2.25;0.50;;;17.70;99.90;;;;;;5069016;28;20052;-27
2022/07/15 12:32:12;;;;;;;1.95;0.60;;;17.90;99.90;;;;;;5061971;28;20049;-27
2022/07/15 12:34:46;;;;;;;5.28;0.60;;;18.00;99.90;;;;;;5061118;28;20051;-27
2022/07/15 12:37:24;;;;;;;6.35;1.08;;;18.10;99.90;;;;;;5053654;28;20049;-27
2022/07/15 12:40:07;;;;;;;2.58;0.70;;;18.20;99.90;;;;;;5054634;28;20057;-27
2022/07/15 12:42:38;;;;;;;4.78;0.98;;;18.40;99.90;;;;;;5061586;28;20043;-27
2022/07/15 12:45:11;;;;;;;4.10;0.82;;;18.40;99.90;;;;;;5072814;28;20125;-27
2022/07/15 12:47:55;;;;;;;4.05;0.60;;;18.40;99.90;;;;;;5061744;28;20055;-27
2022/07/15 12:50:22;;;;;;;6.72;0.70;;;18.40;99.90;;;;;;5053985;28;20052;-27
2022/07/15 12:52:47;;;;;;;3.28;0.68;;;18.40;99.90;;;;;;5054442;28;20052;-27
2022/07/15 12:55:19;;;;;;;3.05;0.85;;;18.20;99.90;;;;;;5054628;28;20041;-28
2022/07/15 12:57:45;;;;;;;2.97;0.73;;;18.20;99.90;;;;;;5053521;28;20394;-27
2022/07/15 13:00:24;;;;;;;2.92;0.65;;;18.10;1.00;;;;;;5054064;28;20041;-28
2022/07/15 13:03:06;;;;;;;4.05;0.60;;;18.20;1.00;;;;;;5053289;28;20467;-28
2022/07/15 13:05:38;;;;;;;2.50;0.60;;;18.40;1.00;;;;;;5052277;28;20052;-27
2022/07/15 13:08:14;;;;;;;5.43;0.50;;;18.50;99.90;;;;;;5053755;28;20210;-27
2022/07/15 13:10:42;;;;;;;5.15;1.23;;;18.60;99.90;;;;;;5055823;28;20074;-27